Time;durP1;ratioP1;P1;durP2;ratioP2;P2;SDS_P1;SDS_P2;PMS_P1;PMS_P2;Temp;Humidity;BMP_temperature;BMP_pressure;BME280_temperature;BME280_humidity;BME280_pressure;Samples;Min_cycle;Max_cycle;Signal;HPM_P1;HPM_P2
2021/10/30 00:00:24;;;;;;;4.68;2.35;;;;;;;10.12;78.93;100862.56;4839977;29;20054;-78
2021/10/30 00:02:49;;;;;;;2.05;1.95;;;;;;;10.04;79.00;100866.38;4823659;29;20474;-75
2021/10/30 00:05:16;;;;;;;1.13;1.13;;;;;;;10.02;78.77;100866.41;4823521;29;20096;-77
2021/10/30 00:07:42;;;;;;;0.95;0.95;;;;;;;10.03;78.47;100865.53;4839790;29;20113;-76
2021/10/30 00:10:10;;;;;;;1.73;1.63;;;;;;;10.03;78.46;100859.44;4839903;29;20061;-77
2021/10/30 00:12:36;;;;;;;2.03;1.92;;;;;;;10.02;78.70;100873.38;4839174;29;20076;-76
2021/10/30 00:15:03;;;;;;;1.73;1.73;;;;;;;10.00;78.86;100875.22;4823520;29;20057;-76
2021/10/30 00:17:29;;;;;;;0.82;0.82;;;;;;;9.97;77.85;100872.72;4839578;29;20110;-76
2021/10/30 00:19:55;;;;;;;1.95;1.85;;;;;;;9.89;78.73;100860.78;4823320;29;20148;-75
2021/10/30 00:22:21;;;;;;;2.70;2.10;;;;;;;9.94;77.75;100863.25;4839508;29;20477;-76
2021/10/30 00:24:48;;;;;;;1.00;1.00;;;;;;;9.93;77.76;100866.75;4822799;29;20109;-78
2021/10/30 00:27:14;;;;;;;2.78;2.60;;;;;;;9.91;77.67;100860.75;4823515;29;20174;-77
2021/10/30 00:29:40;;;;;;;2.58;2.38;;;;;;;9.86;77.51;100858.28;4839351;29;20087;-76
2021/10/30 00:32:07;;;;;;;6.03;2.05;;;;;;;9.92;77.45;100854.59;4841475;29;20058;-75
2021/10/30 00:34:33;;;;;;;1.02;1.02;;;;;;;9.92;77.15;100860.69;4840781;29;20058;-77
2021/10/30 00:36:59;;;;;;;1.17;1.17;;;;;;;9.92;77.07;100870.25;4823460;29;20049;-76
2021/10/30 00:39:25;;;;;;;2.30;2.08;;;;;;;9.94;76.55;100864.09;4823092;29;20058;-78
2021/10/30 00:41:53;;;;;;;2.25;1.60;;;;;;;9.95;76.52;100860.56;4823353;29;20045;-77
2021/10/30 00:44:19;;;;;;;1.42;1.40;;;;;;;9.94;76.36;100863.25;4839415;29;20144;-76
2021/10/30 00:46:48;;;;;;;2.05;1.95;;;;;;;9.94;76.94;100858.03;4839351;29;20049;-76
2021/10/30 00:49:15;;;;;;;1.65;1.55;;;;;;;9.96;75.90;100861.44;4824185;29;20060;-77
2021/10/30 00:51:42;;;;;;;1.15;1.15;;;;;;;9.96;76.55;100869.25;4847886;29;20050;-74
2021/10/30 00:54:08;;;;;;;1.27;1.27;;;;;;;9.91;76.13;100863.38;4852564;29;20080;-75
2021/10/30 00:56:35;;;;;;;1.70;1.70;;;;;;;9.91;77.00;100866.78;4852651;29;20049;-76
2021/10/30 00:59:02;;;;;;;0.63;0.63;;;;;;;9.93;76.61;100869.38;4844232;29;20057;-75
2021/10/30 01:01:28;;;;;;;1.05;1.05;;;;;;;9.98;76.11;100870.03;4839324;29;20050;-75
2021/10/30 01:03:54;;;;;;;1.33;1.33;;;;;;;9.98;76.38;100871.81;4839165;29;20060;-75
2021/10/30 01:06:21;;;;;;;1.65;1.65;;;;;;;9.96;76.40;100871.84;4837671;29;20050;-76
2021/10/30 01:08:48;;;;;;;1.42;1.42;;;;;;;9.94;76.29;100863.25;4822609;29;20053;-77
2021/10/30 01:11:17;;;;;;;1.75;1.75;;;;;;;9.98;76.02;100867.44;4807529;29;20054;-77
2021/10/30 01:13:43;;;;;;;1.23;1.23;;;;;;;9.97;76.24;100862.28;4838614;29;20057;-76
2021/10/30 01:16:10;;;;;;;1.13;1.13;;;;;;;9.99;76.15;100865.69;4839008;29;20077;-75
2021/10/30 01:18:36;;;;;;;0.82;0.82;;;;;;;10.01;75.72;100863.88;4838625;29;20054;-76
2021/10/30 01:21:04;;;;;;;1.10;1.10;;;;;;;10.02;75.58;100866.41;4838976;29;20050;-76
2021/10/30 01:23:30;;;;;;;0.93;0.93;;;;;;;10.00;76.38;100868.25;4837999;29;20402;-76
2021/10/30 01:26:00;;;;;;;1.60;1.50;;;;;;;10.03;75.73;100859.44;4838927;29;20114;-74
2021/10/30 01:28:26;;;;;;;1.75;1.65;;;;;;;10.08;75.34;100855.75;4838880;29;20081;-75
2021/10/30 01:30:52;;;;;;;0.70;0.70;;;;;;;10.12;74.75;100866.94;4838793;29;20567;-74
2021/10/30 01:33:18;;;;;;;1.02;1.02;;;;;;;10.10;75.66;100856.56;4837541;29;20069;-76
2021/10/30 01:35:44;;;;;;;1.60;1.50;;;;;;;10.11;75.29;100876.50;4838480;29;20054;-77
2021/10/30 01:38:11;;;;;;;3.67;1.98;;;;;;;10.10;75.47;100863.53;4823299;29;20065;-75
2021/10/30 01:40:46;;;;;;;1.05;1.05;;;;;;;10.09;75.64;100867.91;4838276;29;20037;-76
2021/10/30 01:43:13;;;;;;;2.30;1.42;;;;;;;10.09;76.10;100877.47;4838768;29;20058;-75
2021/10/30 01:45:40;;;;;;;1.60;1.60;;;;;;;10.08;75.53;100875.81;4838330;29;20046;-74
2021/10/30 01:48:07;;;;;;;1.45;1.45;;;;;;;10.14;75.52;100881.69;4838712;29;20081;-76
2021/10/30 01:50:32;;;;;;;3.13;2.92;;;;;;;10.10;75.51;100880.06;4822074;29;20049;-76
2021/10/30 01:53:00;;;;;;;0.95;0.95;;;;;;;10.17;75.69;100888.53;4838539;29;20053;-75
2021/10/30 01:55:27;;;;;;;1.70;1.58;;;;;;;10.16;75.14;100881.59;4835849;29;20061;-77
2021/10/30 01:57:53;;;;;;;1.25;1.25;;;;;;;10.19;75.19;100890.19;4856836;29;20124;-75
2021/10/30 02:00:19;;;;;;;1.95;1.77;;;;;;;10.19;74.67;100879.75;4856955;29;20052;-76
2021/10/30 02:02:46;;;;;;;1.70;1.60;;;;;;;10.18;75.53;100883.25;4856803;29;20057;-76
2021/10/30 02:05:12;;;;;;;1.70;1.40;;;;;;;10.19;75.17;100887.56;4840583;29;20082;-76
2021/10/30 02:07:40;;;;;;;1.10;1.10;;;;;;;10.25;75.22;100889.94;4856835;29;20049;-76
2021/10/30 02:10:06;;;;;;;0.80;0.80;;;;;;;10.22;75.13;100895.28;4856939;29;20060;-76
2021/10/30 02:12:33;;;;;;;1.60;1.55;;;;;;;10.20;75.02;100899.72;4856865;29;20045;-76
2021/10/30 02:14:59;;;;;;;1.52;1.52;;;;;;;10.22;74.97;100892.69;4857429;29;20598;-77
2021/10/30 02:17:25;;;;;;;1.30;1.30;;;;;;;10.26;74.73;100890.81;4826448;29;20640;-77
2021/10/30 02:19:51;;;;;;;0.85;0.85;;;;;;;10.31;74.69;100889.72;4858888;29;20136;-76
2021/10/30 02:22:21;;;;;;;1.25;1.25;;;;;;;10.29;74.69;100877.63;4840774;29;20056;-76
2021/10/30 02:24:51;;;;;;;0.93;0.93;;;;;;;10.35;74.11;100880.00;4856844;29;20084;-77
2021/10/30 02:27:18;;;;;;;1.15;1.15;;;;;;;10.33;74.34;100900.97;4825143;29;20152;-75
2021/10/30 02:29:44;;;;;;;1.35;1.35;;;;;;;10.29;74.53;100869.81;4856637;29;20046;-77
2021/10/30 02:32:12;;;;;;;0.60;0.60;;;;;;;10.32;74.75;100886.22;4856873;29;20049;-76
2021/10/30 02:34:39;;;;;;;1.23;1.23;;;;;;;10.36;74.03;100885.19;4858380;29;20065;-75
2021/10/30 02:37:06;;;;;;;0.60;0.60;;;;;;;10.31;74.52;100889.72;4845300;29;20053;-76
2021/10/30 02:39:32;;;;;;;1.80;1.70;;;;;;;10.32;74.41;100903.63;4843239;29;20050;-78
2021/10/30 02:41:58;;;;;;;1.13;1.13;;;;;;;10.29;74.79;100907.19;4860013;29;20148;-76
2021/10/30 02:44:24;;;;;;;1.25;1.23;;;;;;;10.32;74.60;100898.41;4859905;29;20516;-76
2021/10/30 02:46:50;;;;;;;1.40;1.40;;;;;;;10.33;74.22;100902.72;4827816;29;20125;-76
2021/10/30 02:49:16;;;;;;;2.22;2.13;;;;;;;10.41;74.00;100898.06;4843246;29;20136;-75
2021/10/30 02:51:43;;;;;;;1.17;1.17;;;;;;;10.37;74.17;100910.38;4859576;29;20596;-76
2021/10/30 02:54:09;;;;;;;1.92;1.38;;;;;;;10.36;73.94;100903.47;4855399;29;20062;-76
2021/10/30 02:56:35;;;;;;;1.20;1.20;;;;;;;10.26;74.23;100906.47;4824541;29;20046;-76
2021/10/30 02:59:02;;;;;;;0.60;0.60;;;;;;;10.39;74.31;100913.78;4809736;29;20050;-75
2021/10/30 03:01:28;;;;;;;0.93;0.93;;;;;;;10.38;73.92;100914.69;4841269;29;20064;-76
2021/10/30 03:03:54;;;;;;;0.63;0.63;;;;;;;10.45;73.14;100923.16;4840909;29;20058;-75
2021/10/30 03:06:22;;;;;;;1.50;1.40;;;;;;;10.42;74.00;100924.13;4841062;29;20533;-75
2021/10/30 03:08:49;;;;;;;0.57;0.57;;;;;;;10.41;73.85;100919.78;4824403;29;20088;-74
2021/10/30 03:11:17;;;;;;;1.10;1.10;;;;;;;10.40;73.63;100918.09;4840919;29;20089;-74
2021/10/30 03:13:43;;;;;;;0.98;0.98;;;;;;;10.38;73.86;100927.75;4840662;29;20137;-75
2021/10/30 03:16:09;;;;;;;1.10;1.10;;;;;;;10.41;73.40;100919.78;4840796;29;20070;-74
2021/10/30 03:18:35;;;;;;;1.65;1.63;;;;;;;10.42;73.69;100924.13;4824361;29;20141;-77
2021/10/30 03:21:01;;;;;;;0.90;0.90;;;;;;;10.37;74.04;100926.03;4824393;29;20528;-76
2021/10/30 03:23:27;;;;;;;1.95;1.85;;;;;;;10.37;74.37;100930.44;4840808;29;20057;-76
2021/10/30 03:25:53;;;;;;;1.10;1.10;;;;;;;10.34;74.34;100926.16;4823936;29;20436;-76
2021/10/30 03:28:19;;;;;;;0.90;0.90;;;;;;;10.34;73.94;100939.19;4840728;29;20062;-77
2021/10/30 03:30:46;;;;;;;1.95;1.63;;;;;;;10.34;74.40;100940.97;4824076;29;20092;-75
2021/10/30 03:33:12;;;;;;;1.52;1.48;;;;;;;10.38;73.43;100943.41;4840520;29;20593;-76
2021/10/30 03:35:39;;;;;;;0.90;0.90;;;;;;;10.43;73.43;100936.28;4840403;29;20050;-76
2021/10/30 03:38:05;;;;;;;1.10;1.10;;;;;;;10.46;72.82;100940.53;4840836;29;20056;-77
2021/10/30 03:40:31;;;;;;;1.65;1.65;;;;;;;10.44;73.63;100943.16;4840802;29;20053;-75
2021/10/30 03:42:57;;;;;;;0.88;0.68;;;;;;;10.43;74.06;100941.50;4824075;29;20057;-76
2021/10/30 03:45:24;;;;;;;0.63;0.63;;;;;;;10.43;73.17;100935.41;4840133;29;20110;-76
2021/10/30 03:47:50;;;;;;;1.58;1.58;;;;;;;10.41;73.09;100927.63;4839710;29;20126;-74
2021/10/30 03:50:17;;;;;;;1.23;1.23;;;;;;;10.43;73.72;100930.19;4840332;29;20165;-76
2021/10/30 03:52:44;;;;;;;1.15;1.15;;;;;;;10.42;73.25;100939.78;4823623;29;20058;-76
2021/10/30 03:55:10;;;;;;;2.28;2.10;;;;;;;10.42;73.66;100929.34;4839930;29;20056;-77
2021/10/30 03:57:36;;;;;;;0.98;0.98;;;;;;;10.39;73.76;100932.06;4839901;29;20160;-75
2021/10/30 04:00:04;;;;;;;1.17;1.15;;;;;;;10.42;73.51;100931.09;4839992;29;20145;-75
2021/10/30 04:02:39;;;;;;;1.88;1.77;;;;;;;10.43;72.96;100931.06;4837336;29;20062;-75
2021/10/30 04:05:05;;;;;;;2.55;1.48;;;;;;;10.41;73.80;100932.84;4821809;29;20225;-77
2021/10/30 04:07:31;;;;;;;1.42;1.42;;;;;;;10.42;74.04;100929.34;4821830;29;20066;-74
2021/10/30 04:09:58;;;;;;;2.63;2.42;;;;;;;10.41;73.92;100935.47;4805166;29;20506;-76
2021/10/30 04:12:24;;;;;;;1.58;1.25;;;;;;;10.43;73.64;100931.06;4821795;29;20611;-76
2021/10/30 04:14:50;;;;;;;1.65;1.60;;;;;;;10.40;73.94;100936.34;4821574;29;20122;-75
2021/10/30 04:17:16;;;;;;;1.65;1.55;;;;;;;10.40;73.18;100928.53;4805089;29;20103;-75
2021/10/30 04:19:42;;;;;;;1.17;1.17;;;;;;;10.44;73.10;100924.91;4824358;29;20446;-76
2021/10/30 04:22:08;;;;;;;2.88;2.67;;;;;;;10.46;73.54;100924.84;4823875;29;20633;-75
2021/10/30 04:24:34;;;;;;;16.05;1.20;;;;;;;10.45;73.46;100929.22;4823869;29;20517;-75
2021/10/30 04:27:00;;;;;;;1.17;1.17;;;;;;;10.44;73.28;100922.28;4839707;29;20056;-74
2021/10/30 04:29:27;;;;;;;1.15;1.15;;;;;;;10.45;73.55;100917.91;4840010;29;20049;-75
2021/10/30 04:31:56;;;;;;;1.88;1.73;;;;;;;10.45;74.15;100918.78;4846164;29;20060;-75
2021/10/30 04:34:30;;;;;;;2.08;1.92;;;;;;;10.44;73.85;100905.78;4851279;29;20079;-74
2021/10/30 04:36:57;;;;;;;1.58;1.58;;;;;;;10.46;73.92;100906.59;4841528;29;20559;-75
2021/10/30 04:39:24;;;;;;;1.73;1.63;;;;;;;10.44;73.55;100909.22;4841138;29;20057;-74
2021/10/30 04:41:50;;;;;;;1.73;1.73;;;;;;;10.42;74.05;100908.44;4808580;29;20394;-76
2021/10/30 04:44:18;;;;;;;1.30;1.30;;;;;;;10.39;73.98;100894.66;4841296;29;20065;-76
2021/10/30 04:46:44;;;;;;;2.08;1.70;;;;;;;10.42;73.70;100907.59;4808106;29;20049;-75
2021/10/30 04:49:10;;;;;;;2.63;2.42;;;;;;;10.45;73.65;100910.09;4839232;29;20079;-75
2021/10/30 04:51:36;;;;;;;2.17;1.25;;;;;;;10.44;73.34;100906.63;4814896;29;20054;-75
2021/10/30 04:54:02;;;;;;;2.15;2.05;;;;;;;10.45;74.28;100910.09;4838829;29;20118;-74
2021/10/30 04:56:28;;;;;;;1.80;1.80;;;;;;;10.43;73.99;100904.94;4823029;29;20060;-74
2021/10/30 04:58:54;;;;;;;1.60;1.52;;;;;;;10.44;73.65;100911.00;4838779;29;20163;-75
2021/10/30 05:01:20;;;;;;;1.88;1.88;;;;;;;10.42;73.43;100908.44;4839100;29;20436;-75
2021/10/30 05:03:47;;;;;;;1.40;1.40;;;;;;;10.43;73.76;100915.38;4822692;29;20133;-73
2021/10/30 05:06:14;;;;;;;1.90;1.80;;;;;;;10.44;73.60;100917.06;4838367;29;20126;-74
2021/10/30 05:08:39;;;;;;;1.05;1.05;;;;;;;10.49;73.70;100908.22;4838951;29;20170;-74
2021/10/30 05:11:07;;;;;;;1.40;1.40;;;;;;;10.49;73.56;100911.69;4837731;29;20390;-76
2021/10/30 05:13:34;;;;;;;1.45;1.45;;;;;;;10.47;73.75;100904.81;4822586;29;20160;-75
2021/10/30 05:16:01;;;;;;;0.95;0.95;;;;;;;10.52;73.26;100913.31;4838738;29;20049;-76
2021/10/30 05:18:27;;;;;;;1.40;1.40;;;;;;;10.58;72.86;100908.72;4838620;29;20061;-77
2021/10/30 05:20:54;;;;;;;1.35;1.27;;;;;;;10.66;72.84;100903.22;4838260;29;20556;-76
2021/10/30 05:23:20;;;;;;;1.38;1.35;;;;;;;10.66;72.59;100908.44;4838424;29;20525;-77
2021/10/30 05:25:46;;;;;;;3.47;2.97;;;;;;;10.74;72.82;100908.97;4822102;29;20037;-76
2021/10/30 05:28:20;;;;;;;1.95;1.95;;;;;;;11.15;71.16;100912.59;4837749;29;20053;-81
2021/10/30 05:30:48;;;;;;;1.77;1.67;;;;;;;11.05;71.16;100909.50;4823573;29;20093;-77
2021/10/30 05:33:15;;;;;;;1.30;1.30;;;;;;;10.87;71.86;100915.44;4839045;29;20138;-77
2021/10/30 05:36:00;;;;;;;3.03;2.88;;;;;;;10.73;72.44;100920.34;4822091;29;20058;-77
2021/10/30 05:38:43;;;;;;;1.02;1.02;;;;;;;10.69;72.54;100914.41;4822758;29;20496;-79
2021/10/30 05:41:09;;;;;;;1.88;1.77;;;;;;;10.69;72.41;100909.19;4838929;29;20054;-81
2021/10/30 05:43:37;;;;;;;9.10;2.15;;;;;;;10.64;72.84;100907.63;4817266;29;20050;-78
2021/10/30 05:46:04;;;;;;;1.45;1.40;;;;;;;11.44;70.35;100907.88;4806442;29;20057;-82
2021/10/30 05:48:30;;;;;;;1.73;1.63;;;;;;;12.12;67.34;100906.72;4821692;29;20058;-79
2021/10/30 05:50:56;;;;;;;2.08;1.98;;;;;;;12.28;66.28;100899.88;4821555;29;20073;-79
2021/10/30 05:53:21;;;;;;;2.78;2.67;;;;;;;12.25;66.60;100899.16;4838018;29;20054;-78
2021/10/30 05:55:48;;;;;;;1.88;1.83;;;;;;;12.60;65.48;100908.06;4823059;29;20065;-78
2021/10/30 05:58:14;;;;;;;2.20;2.05;;;;;;;13.21;63.74;100909.47;4806869;29;20064;-77
2021/10/30 06:00:40;;;;;;;2.03;1.90;;;;;;;12.72;65.15;100913.56;4821478;29;20474;-77
2021/10/30 06:03:06;;;;;;;7.32;1.85;;;;;;;13.04;64.32;100907.66;4837550;29;20057;-80
2021/10/30 06:05:33;;;;;;;1.30;1.23;;;;;;;13.15;63.77;100907.16;4817999;29;20852;-79
2021/10/30 06:08:00;;;;;;;1.17;1.17;;;;;;;13.11;64.29;100910.84;4823799;29;20058;-80
2021/10/30 06:10:29;;;;;;;1.75;1.65;;;;;;;13.15;63.49;100909.78;4812678;29;20050;-82
2021/10/30 06:12:55;;;;;;;24.60;2.00;;;;;;;13.25;63.09;100911.00;4841349;29;20517;-77
2021/10/30 06:15:21;;;;;;;2.40;2.28;;;;;;;12.78;64.64;100901.94;4839968;29;20107;-78
2021/10/30 06:17:48;;;;;;;19.08;2.58;;;;;;;13.14;64.12;100909.84;4824782;29;20142;-80
2021/10/30 06:20:14;;;;;;;1.98;1.88;;;;;;;13.44;63.26;100903.09;4824743;29;20058;-78
2021/10/30 06:22:42;;;;;;;2.10;2.00;;;;;;;13.56;62.85;100899.84;4841433;29;20081;-78
2021/10/30 06:25:12;;;;;;;1.70;1.60;;;;;;;13.74;62.04;100905.97;4811766;29;20058;-80
2021/10/30 06:27:38;;;;;;;2.78;2.58;;;;;;;14.19;60.59;100893.06;4811727;29;20076;-82
2021/10/30 06:30:06;;;;;;;2.55;2.40;;;;;;;13.83;61.92;100900.25;4841559;29;20054;-81
2021/10/30 06:32:34;;;;;;;1.92;1.92;;;;;;;13.94;61.57;100903.13;4825538;29;20509;-83
2021/10/30 06:35:00;;;;;;;4.18;2.45;;;;;;;13.78;61.91;100904.84;4811127;29;20141;-80
2021/10/30 06:37:27;;;;;;;2.05;1.95;;;;;;;13.95;61.90;100894.34;4841333;29;20508;-81
2021/10/30 06:39:53;;;;;;;1.65;1.65;;;;;;;13.60;63.01;100905.81;4834372;29;20572;-86
2021/10/30 06:42:19;;;;;;;2.78;2.42;;;;;;;13.75;62.20;100902.38;4838701;29;20058;-83
2021/10/30 06:44:46;;;;;;;2.30;2.20;;;;;;;13.55;63.19;100899.00;4831976;29;20112;-79
2021/10/30 06:47:13;;;;;;;1.90;1.80;;;;;;;13.98;62.33;100899.44;4821947;29;20050;-82
2021/10/30 06:49:40;;;;;;;1.55;1.55;;;;;;;14.35;60.90;100901.88;4821006;29;20527;-81
2021/10/30 06:52:08;;;;;;;2.42;2.22;;;;;;;14.37;60.81;100902.63;4841143;29;20406;-79
2021/10/30 06:54:34;;;;;;;1.42;1.42;;;;;;;14.49;60.51;100915.13;4815708;29;20061;-83
2021/10/30 06:57:00;;;;;;;5.75;3.00;;;;;;;14.26;61.55;100911.97;4862831;29;20053;-81
2021/10/30 06:59:28;;;;;;;2.70;2.53;;;;;;;14.53;60.55;100908.72;4860224;29;20050;-81
2021/10/30 07:01:54;;;;;;;2.45;2.25;;;;;;;14.61;59.78;100905.69;4846819;29;20531;-84
2021/10/30 07:04:20;;;;;;;5.32;1.92;;;;;;;14.37;61.14;100913.13;4844788;29;20054;-83
2021/10/30 07:06:46;;;;;;;2.15;2.05;;;;;;;14.74;60.40;100916.38;4844534;29;20651;-80
2021/10/30 07:09:14;;;;;;;2.58;2.38;;;;;;;14.31;61.39;100925.69;4856803;29;20041;-84
2021/10/30 07:11:44;;;;;;;3.35;2.97;;;;;;;14.49;60.85;100917.75;4861565;29;20775;-82
2021/10/30 07:14:10;;;;;;;2.33;2.13;;;;;;;14.95;59.15;100926.56;4846655;29;20068;-84
2021/10/30 07:16:37;;;;;;;2.15;2.05;;;;;;;15.30;58.98;100924.59;4861084;29;20057;-82
2021/10/30 07:19:02;;;;;;;2.33;2.13;;;;;;;15.33;58.05;100926.19;4859414;29;20461;-81
2021/10/30 07:21:28;;;;;;;4.07;2.17;;;;;;;14.73;60.44;100922.56;4843181;29;20055;-77
2021/10/30 07:23:55;;;;;;;2.17;2.08;;;;;;;14.51;60.91;100920.28;4858852;29;20144;-81
2021/10/30 07:26:21;;;;;;;4.30;3.15;;;;;;;14.17;62.66;100923.81;4853486;29;20573;-82
2021/10/30 07:28:47;;;;;;;6.18;2.97;;;;;;;15.10;59.60;100924.88;4854909;29;20741;-81
2021/10/30 07:31:13;;;;;;;3.75;3.55;;;;;;;15.11;59.58;100927.44;4856544;29;20064;-80
2021/10/30 07:33:39;;;;;;;2.88;2.67;;;;;;;15.23;58.26;100911.84;4855536;29;20452;-78
2021/10/30 07:36:05;;;;;;;2.13;2.03;;;;;;;14.68;60.91;100927.25;4838673;29;20092;-80
2021/10/30 07:38:31;;;;;;;5.63;3.13;;;;;;;15.06;59.07;100918.06;4856371;29;20670;-81
2021/10/30 07:40:57;;;;;;;2.65;2.55;;;;;;;14.40;61.74;100928.72;4841477;29;20053;-80
2021/10/30 07:43:23;;;;;;;2.20;2.10;;;;;;;14.85;60.32;100924.53;4842938;29;20050;-80
2021/10/30 07:45:49;;;;;;;2.97;2.78;;;;;;;15.00;60.00;100918.41;4841945;29;20045;-81
2021/10/30 07:48:15;;;;;;;2.78;2.65;;;;;;;15.57;57.51;100920.38;4858128;29;20148;-80
2021/10/30 07:50:42;;;;;;;2.20;2.10;;;;;;;14.94;59.71;100924.88;4826999;29;20041;-81
2021/10/30 07:53:10;;;;;;;2.50;2.30;;;;;;;13.44;64.64;100909.22;4859826;29;20094;-81
2021/10/30 07:55:36;;;;;;;2.15;2.05;;;;;;;13.21;66.02;100924.38;4850341;29;20071;-80
2021/10/30 07:58:02;;;;;;;2.50;2.35;;;;;;;12.80;67.38;100923.66;4869822;29;20060;-80
2021/10/30 08:00:28;;;;;;;3.00;2.53;;;;;;;12.95;67.03;100930.81;4837562;29;20064;-81
2021/10/30 08:02:54;;;;;;;11.48;1.92;;;;;;;12.95;67.34;100926.44;4860925;29;20057;-81
2021/10/30 08:05:20;;;;;;;2.58;2.42;;;;;;;13.53;65.01;100927.09;4859315;29;20423;-81
2021/10/30 08:07:47;;;;;;;2.38;2.22;;;;;;;14.69;61.44;100926.31;4842409;29;20053;-80
2021/10/30 08:10:13;;;;;;;5.63;2.92;;;;;;;15.24;59.29;100924.94;4841696;29;20060;-80
2021/10/30 08:12:39;;;;;;;1.75;1.65;;;;;;;14.21;62.04;100911.34;4842241;29;20088;-80
2021/10/30 08:15:06;;;;;;;3.55;2.80;;;;;;;14.41;61.81;100930.44;4858181;29;20045;-78
2021/10/30 08:17:32;;;;;;;2.55;2.35;;;;;;;14.12;62.59;100917.09;4858757;29;20255;-79
2021/10/30 08:19:59;;;;;;;7.38;3.17;;;;;;;14.06;62.78;100934.03;4826604;29;20495;-81
2021/10/30 08:22:25;;;;;;;2.55;2.45;;;;;;;13.94;63.55;100938.13;4842151;29;20148;-81
2021/10/30 08:24:51;;;;;;;1.95;1.85;;;;;;;14.49;61.46;100923.00;4841380;29;20046;-80
2021/10/30 08:27:17;;;;;;;2.80;2.60;;;;;;;14.76;60.25;100930.28;4858421;29;20100;-83
2021/10/30 08:29:44;;;;;;;24.80;2.85;;;;;;;14.02;63.14;100949.09;4841943;29;20056;-80
2021/10/30 08:32:11;;;;;;;14.98;2.55;;;;;;;13.40;65.06;100949.63;4856694;29;20080;-81
2021/10/30 08:34:37;;;;;;;2.47;2.38;;;;;;;13.50;65.12;100944.78;4857503;29;20100;-79
2021/10/30 08:37:04;;;;;;;4.68;4.03;;;;;;;13.57;64.44;100941.78;4841417;29;20228;-80
2021/10/30 08:39:30;;;;;;;2.22;2.13;;;;;;;13.49;64.13;100953.56;4841202;29;20078;-82
2021/10/30 08:41:56;;;;;;;2.65;2.45;;;;;;;13.90;62.96;100939.22;4824093;29;20477;-80
2021/10/30 08:44:22;;;;;;;2.33;2.22;;;;;;;13.99;62.82;100940.53;4840653;29;20402;-80
2021/10/30 08:46:52;;;;;;;2.15;1.80;;;;;;;14.11;62.11;100937.25;4857862;29;20081;-80
2021/10/30 08:49:19;;;;;;;3.17;2.90;;;;;;;14.64;60.51;100941.47;4858755;29;20060;-80
2021/10/30 08:51:46;;;;;;;2.63;2.42;;;;;;;14.75;59.79;100952.28;4859195;29;20057;-83
2021/10/30 08:54:12;;;;;;;2.72;2.53;;;;;;;14.17;62.21;100946.63;4839672;29;20053;-79
2021/10/30 08:56:48;;;;;;;3.03;2.85;;;;;;;13.44;64.08;100929.34;4809200;29;20501;-79
2021/10/30 08:59:15;;;;;;;3.70;3.28;;;;;;;12.80;66.80;100952.50;4812741;29;20057;-80
2021/10/30 09:01:46;;;;;;;3.53;2.80;;;;;;;12.77;66.83;100947.41;4823521;29;20054;-77
2021/10/30 09:04:39;;;;;;;3.55;2.40;;;;;;;12.57;67.36;100934.34;4840685;29;20085;-78
2021/10/30 09:07:06;;;;;;;2.70;2.58;;;;;;;12.50;67.60;100939.88;4824260;29;20053;-81
2021/10/30 09:09:32;;;;;;;3.38;3.00;;;;;;;12.46;68.10;100938.34;4809670;29;20083;-83
2021/10/30 09:12:00;;;;;;;1.90;1.80;;;;;;;12.40;68.37;100937.78;4839447;29;20050;-79
2021/10/30 09:14:28;;;;;;;5.68;2.85;;;;;;;12.65;67.51;100937.50;4823032;29;20524;-79
2021/10/30 09:17:15;;;;;;;6.05;2.42;;;;;;;12.83;66.92;100947.09;4821296;29;20069;-79
2021/10/30 09:19:43;;;;;;;2.78;2.58;;;;;;;12.82;66.86;100924.47;4821321;29;20062;-78
2021/10/30 09:22:14;;;;;;;1.63;1.52;;;;;;;12.97;66.64;100940.31;4821189;29;20058;-80
2021/10/30 09:25:02;;;;;;;2.42;2.33;;;;;;;12.91;65.91;100924.03;4823987;29;20082;-80
2021/10/30 09:27:54;;;;;;;2.30;2.20;;;;;;;13.02;65.93;100947.97;4838293;29;20115;-77
2021/10/30 09:30:25;;;;;;;2.17;2.08;;;;;;;13.23;65.30;100941.72;4807366;29;20054;-77
2021/10/30 09:32:56;;;;;;;1.67;1.67;;;;;;;13.19;65.29;100934.91;4837324;29;20061;-78
2021/10/30 09:35:30;;;;;;;2.80;1.60;;;;;;;13.07;65.40;100930.22;4837106;29;20062;-79
2021/10/30 09:37:57;;;;;;;3.17;2.33;;;;;;;12.82;66.06;100940.19;4822671;29;20134;-79
2021/10/30 09:40:28;;;;;;;1.92;1.83;;;;;;;12.97;65.68;100936.84;4822666;29;20075;-77
2021/10/30 09:43:26;;;;;;;3.00;2.80;;;;;;;13.02;65.14;100932.25;4838961;29;20046;-79
2021/10/30 09:45:54;;;;;;;4.38;3.17;;;;;;;12.92;65.53;100931.84;4801247;29;20137;-79
2021/10/30 09:48:23;;;;;;;2.60;2.40;;;;;;;12.97;65.09;100937.69;4824881;29;20062;-76
2021/10/30 09:50:53;;;;;;;4.38;2.20;;;;;;;13.09;65.01;100931.03;4842763;29;20104;-79
2021/10/30 09:53:27;;;;;;;2.53;2.42;;;;;;;12.99;65.19;100933.22;4840369;29;20056;-78
2021/10/30 09:56:03;;;;;;;1.30;1.30;;;;;;;13.26;64.72;100928.44;4840811;29;20061;-78
2021/10/30 09:58:30;;;;;;;4.20;2.00;;;;;;;13.30;64.36;100945.75;4809927;29;20097;-79
2021/10/30 10:01:18;;;;;;;3.75;3.35;;;;;;;13.15;64.59;100917.66;4825655;29;20133;-80
2021/10/30 10:03:44;;;;;;;2.72;2.55;;;;;;;13.01;64.69;100914.81;4794919;29;20054;-78
2021/10/30 10:06:14;;;;;;;1.75;1.65;;;;;;;12.92;65.29;100920.50;4823748;29;20061;-79
2021/10/30 10:08:41;;;;;;;1.55;1.52;;;;;;;13.07;64.79;100919.75;4823638;29;20058;-80
2021/10/30 10:11:10;;;;;;;5.43;3.33;;;;;;;12.91;65.04;100911.78;4822050;29;20081;-79
2021/10/30 10:13:36;;;;;;;3.35;3.00;;;;;;;13.10;64.90;100940.59;4838237;29;20508;-78
2021/10/30 10:16:06;;;;;;;3.10;2.88;;;;;;;13.10;64.91;100930.13;4810422;29;20050;-80
2021/10/30 10:18:34;;;;;;;2.15;2.03;;;;;;;13.18;64.51;100919.28;4825827;29;20062;-80
2021/10/30 10:21:01;;;;;;;2.55;1.90;;;;;;;13.04;65.68;100931.25;4825316;29;20054;-79
2021/10/30 10:23:27;;;;;;;2.75;2.55;;;;;;;13.24;64.71;100932.94;4825726;29;20585;-79
2021/10/30 10:25:58;;;;;;;4.15;3.38;;;;;;;13.18;64.86;100929.75;4825362;29;20053;-80
2021/10/30 10:28:37;;;;;;;1.98;1.88;;;;;;;13.20;64.55;100928.75;4825569;29;20103;-79
2021/10/30 10:31:11;;;;;;;2.50;2.38;;;;;;;13.22;64.53;100924.28;4841390;29;20160;-78
2021/10/30 10:33:38;;;;;;;2.03;1.92;;;;;;;13.31;64.56;100923.84;4827158;29;20130;-80
2021/10/30 10:36:13;;;;;;;1.80;1.80;;;;;;;13.35;63.69;100935.03;4796105;29;20046;-79
2021/10/30 10:38:57;;;;;;;33.15;3.67;;;;;;;13.29;63.59;100924.81;4843429;29;20054;-80
2021/10/30 10:41:44;;;;;;;2.22;2.10;;;;;;;13.22;63.80;100929.53;4842314;29;20053;-78
2021/10/30 10:44:26;;;;;;;1.77;1.73;;;;;;;13.16;64.22;100919.34;4809423;29;20460;-79
2021/10/30 10:46:57;;;;;;;1.98;1.88;;;;;;;13.25;64.14;100924.13;4845322;29;20081;-79
2021/10/30 10:49:42;;;;;;;2.20;2.10;;;;;;;13.20;63.84;100920.88;4824954;29;20133;-77
2021/10/30 10:52:17;;;;;;;2.47;2.22;;;;;;;13.25;63.68;100929.38;4826730;29;20375;-80
2021/10/30 10:55:05;;;;;;;1.98;1.88;;;;;;;13.30;63.63;100921.28;4835785;29;20071;-80
2021/10/30 10:57:35;;;;;;;2.00;1.90;;;;;;;13.24;63.95;100919.81;4861292;29;20481;-79
2021/10/30 11:00:05;;;;;;;3.75;1.92;;;;;;;13.35;63.51;100928.00;4843365;29;20441;-78
2021/10/30 11:02:33;;;;;;;2.00;1.90;;;;;;;13.23;64.11;100918.13;4859631;29;20102;-76
2021/10/30 11:05:10;;;;;;;13.27;2.38;;;;;;;13.15;63.92;100928.16;4859405;29;20045;-77
2021/10/30 11:07:42;;;;;;;3.30;2.78;;;;;;;13.19;63.70;100910.47;4843021;29;20054;-79
2021/10/30 11:10:09;;;;;;;2.63;2.47;;;;;;;13.23;63.73;100931.22;4859013;29;20049;-81
2021/10/30 11:12:35;;;;;;;1.85;1.83;;;;;;;13.20;63.60;100905.16;4859510;29;20053;-81
2021/10/30 11:15:16;;;;;;;2.15;2.05;;;;;;;13.28;63.29;100920.53;4843503;29;20078;-78
2021/10/30 11:17:49;;;;;;;;;;;;;;;13.17;63.59;100910.56;4835648;29;20079;-78
2021/10/30 11:20:16;;;;;;;2.80;2.60;;;;;;;13.19;63.72;100916.56;4852227;29;20577;-78
2021/10/30 11:23:01;;;;;;;2.83;2.42;;;;;;;13.27;63.70;100918.81;4858360;29;20510;-78
2021/10/30 11:25:30;;;;;;;2.42;2.22;;;;;;;13.34;63.81;100922.84;4843094;29;20098;-79
2021/10/30 11:28:00;;;;;;;2.67;2.13;;;;;;;13.25;63.93;100900.53;4842822;29;20073;-79
2021/10/30 11:30:44;;;;;;;2.58;2.47;;;;;;;13.27;63.55;100921.44;4827314;29;20408;-78